sensor_id;sensor_type;location;lat;lon;timestamp;P1;durP1;ratioP1;P2;durP2;ratioP2
76284;SDS011;71676;50.998;7.098;2024-01-30T00:00:00;12.63;;;6.43;;
76284;SDS011;71676;50.998;7.098;2024-01-30T00:02:27;12.27;;;6.63;;
76284;SDS011;71676;50.998;7.098;2024-01-30T00:04:54;14.00;;;6.53;;
76284;SDS011;71676;50.998;7.098;2024-01-30T00:07:20;12.35;;;6.32;;
76284;SDS011;71676;50.998;7.098;2024-01-30T00:09:47;14.38;;;6.18;;
76284;SDS011;71676;50.998;7.098;2024-01-30T00:12:14;10.98;;;6.18;;
76284;SDS011;71676;50.998;7.098;2024-01-30T00:14:41;12.18;;;5.72;;
76284;SDS011;71676;50.998;7.098;2024-01-30T00:17:09;11.55;;;6.10;;
76284;SDS011;71676;50.998;7.098;2024-01-30T00:19:36;15.05;;;6.38;;
76284;SDS011;71676;50.998;7.098;2024-01-30T00:22:02;13.05;;;6.45;;
76284;SDS011;71676;50.998;7.098;2024-01-30T00:24:29;11.80;;;6.38;;
76284;SDS011;71676;50.998;7.098;2024-01-30T00:26:56;11.70;;;6.38;;
76284;SDS011;71676;50.998;7.098;2024-01-30T00:29:22;11.80;;;5.97;;
76284;SDS011;71676;50.998;7.098;2024-01-30T00:31:50;11.23;;;6.05;;
76284;SDS011;71676;50.998;7.098;2024-01-30T00:34:19;13.07;;;6.30;;
76284;SDS011;71676;50.998;7.098;2024-01-30T00:36:46;11.32;;;6.20;;
76284;SDS011;71676;50.998;7.098;2024-01-30T00:39:12;14.50;;;6.25;;
76284;SDS011;71676;50.998;7.098;2024-01-30T00:41:40;12.35;;;6.28;;
76284;SDS011;71676;50.998;7.098;2024-01-30T00:44:07;11.30;;;5.80;;
76284;SDS011;71676;50.998;7.098;2024-01-30T00:46:34;12.82;;;6.45;;
76284;SDS011;71676;50.998;7.098;2024-01-30T00:49:00;12.52;;;6.07;;
76284;SDS011;71676;50.998;7.098;2024-01-30T00:51:29;13.15;;;6.53;;
76284;SDS011;71676;50.998;7.098;2024-01-30T00:53:56;14.30;;;6.25;;
76284;SDS011;71676;50.998;7.098;2024-01-30T00:56:22;11.27;;;5.95;;
76284;SDS011;71676;50.998;7.098;2024-01-30T00:58:49;12.43;;;6.40;;
76284;SDS011;71676;50.998;7.098;2024-01-30T01:01:16;11.23;;;5.97;;
76284;SDS011;71676;50.998;7.098;2024-01-30T01:03:42;11.68;;;6.03;;
76284;SDS011;71676;50.998;7.098;2024-01-30T01:06:09;12.27;;;6.95;;
76284;SDS011;71676;50.998;7.098;2024-01-30T01:08:39;11.75;;;6.05;;
76284;SDS011;71676;50.998;7.098;2024-01-30T01:11:06;11.27;;;5.45;;
76284;SDS011;71676;50.998;7.098;2024-01-30T01:13:32;12.20;;;5.72;;
76284;SDS011;71676;50.998;7.098;2024-01-30T01:15:59;12.45;;;5.95;;
76284;SDS011;71676;50.998;7.098;2024-01-30T01:18:25;11.27;;;5.60;;
76284;SDS011;71676;50.998;7.098;2024-01-30T01:20:52;14.13;;;5.43;;
76284;SDS011;71676;50.998;7.098;2024-01-30T01:23:19;11.50;;;5.78;;
76284;SDS011;71676;50.998;7.098;2024-01-30T01:25:47;12.98;;;6.03;;
76284;SDS011;71676;50.998;7.098;2024-01-30T01:28:14;12.10;;;5.90;;
76284;SDS011;71676;50.998;7.098;2024-01-30T01:30:40;14.10;;;6.72;;
76284;SDS011;71676;50.998;7.098;2024-01-30T01:33:07;12.60;;;5.95;;
76284;SDS011;71676;50.998;7.098;2024-01-30T01:35:34;11.50;;;5.60;;
76284;SDS011;71676;50.998;7.098;2024-01-30T01:38:01;11.57;;;4.93;;
76284;SDS011;71676;50.998;7.098;2024-01-30T01:40:27;11.15;;;5.60;;
76284;SDS011;71676;50.998;7.098;2024-01-30T01:42:55;10.88;;;5.72;;
76284;SDS011;71676;50.998;7.098;2024-01-30T01:45:22;11.13;;;5.25;;
76284;SDS011;71676;50.998;7.098;2024-01-30T01:47:50;11.52;;;5.63;;
76284;SDS011;71676;50.998;7.098;2024-01-30T01:50:17;14.88;;;5.90;;
76284;SDS011;71676;50.998;7.098;2024-01-30T01:52:44;12.32;;;6.15;;
76284;SDS011;71676;50.998;7.098;2024-01-30T01:55:14;12.20;;;5.75;;
76284;SDS011;71676;50.998;7.098;2024-01-30T01:57:42;11.75;;;5.65;;
76284;SDS011;71676;50.998;7.098;2024-01-30T02:00:12;14.93;;;5.85;;
76284;SDS011;71676;50.998;7.098;2024-01-30T02:02:40;10.02;;;5.50;;
76284;SDS011;71676;50.998;7.098;2024-01-30T02:05:09;10.88;;;5.72;;
76284;SDS011;71676;50.998;7.098;2024-01-30T02:07:36;10.90;;;5.65;;
76284;SDS011;71676;50.998;7.098;2024-01-30T02:10:03;12.88;;;6.43;;
76284;SDS011;71676;50.998;7.098;2024-01-30T02:12:30;12.05;;;5.75;;
76284;SDS011;71676;50.998;7.098;2024-01-30T02:14:57;10.63;;;5.45;;
76284;SDS011;71676;50.998;7.098;2024-01-30T02:17:25;10.63;;;5.93;;
76284;SDS011;71676;50.998;7.098;2024-01-30T02:19:52;11.32;;;5.60;;
76284;SDS011;71676;50.998;7.098;2024-01-30T02:22:20;11.85;;;5.53;;
76284;SDS011;71676;50.998;7.098;2024-01-30T02:24:47;11.45;;;5.60;;
76284;SDS011;71676;50.998;7.098;2024-01-30T02:27:14;10.50;;;5.57;;
76284;SDS011;71676;50.998;7.098;2024-01-30T02:29:39;10.85;;;6.15;;
76284;SDS011;71676;50.998;7.098;2024-01-30T02:32:06;12.88;;;5.88;;
76284;SDS011;71676;50.998;7.098;2024-01-30T02:34:33;12.45;;;5.65;;
76284;SDS011;71676;50.998;7.098;2024-01-30T02:36:59;10.45;;;5.63;;
76284;SDS011;71676;50.998;7.098;2024-01-30T02:39:27;10.98;;;5.40;;
76284;SDS011;71676;50.998;7.098;2024-01-30T02:41:54;11.85;;;6.65;;
76284;SDS011;71676;50.998;7.098;2024-01-30T02:44:22;11.45;;;5.85;;
76284;SDS011;71676;50.998;7.098;2024-01-30T02:46:48;10.95;;;5.68;;
76284;SDS011;71676;50.998;7.098;2024-01-30T02:49:15;11.65;;;5.53;;
76284;SDS011;71676;50.998;7.098;2024-01-30T02:51:41;11.13;;;5.97;;
76284;SDS011;71676;50.998;7.098;2024-01-30T02:54:08;10.52;;;5.57;;
76284;SDS011;71676;50.998;7.098;2024-01-30T02:56:36;10.18;;;5.22;;
76284;SDS011;71676;50.998;7.098;2024-01-30T02:59:03;11.93;;;5.40;;
76284;SDS011;71676;50.998;7.098;2024-01-30T03:01:29;11.27;;;5.28;;
76284;SDS011;71676;50.998;7.098;2024-01-30T03:03:56;9.98;;;5.70;;
76284;SDS011;71676;50.998;7.098;2024-01-30T03:06:22;10.32;;;5.70;;
76284;SDS011;71676;50.998;7.098;2024-01-30T03:08:49;13.85;;;6.10;;
76284;SDS011;71676;50.998;7.098;2024-01-30T03:11:15;11.82;;;5.97;;
76284;SDS011;71676;50.998;7.098;2024-01-30T03:13:43;10.68;;;5.70;;
76284;SDS011;71676;50.998;7.098;2024-01-30T03:16:10;9.75;;;5.55;;
76284;SDS011;71676;50.998;7.098;2024-01-30T03:18:37;11.48;;;5.97;;
76284;SDS011;71676;50.998;7.098;2024-01-30T03:21:03;12.98;;;6.00;;
76284;SDS011;71676;50.998;7.098;2024-01-30T03:23:30;10.68;;;5.00;;
76284;SDS011;71676;50.998;7.098;2024-01-30T03:25:57;11.48;;;5.63;;
76284;SDS011;71676;50.998;7.098;2024-01-30T03:28:26;12.65;;;5.50;;
76284;SDS011;71676;50.998;7.098;2024-01-30T03:30:53;10.60;;;5.65;;
76284;SDS011;71676;50.998;7.098;2024-01-30T03:33:20;11.10;;;5.38;;
76284;SDS011;71676;50.998;7.098;2024-01-30T03:35:46;11.35;;;5.40;;
76284;SDS011;71676;50.998;7.098;2024-01-30T03:38:13;12.82;;;5.70;;
76284;SDS011;71676;50.998;7.098;2024-01-30T03:40:40;9.80;;;5.22;;
76284;SDS011;71676;50.998;7.098;2024-01-30T03:43:06;11.00;;;5.43;;
76284;SDS011;71676;50.998;7.098;2024-01-30T03:45:33;11.25;;;5.28;;
76284;SDS011;71676;50.998;7.098;2024-01-30T03:48:01;9.77;;;5.03;;
76284;SDS011;71676;50.998;7.098;2024-01-30T03:50:28;11.30;;;5.72;;
76284;SDS011;71676;50.998;7.098;2024-01-30T03:52:54;9.93;;;5.30;;
76284;SDS011;71676;50.998;7.098;2024-01-30T03:55:21;10.35;;;5.05;;
76284;SDS011;71676;50.998;7.098;2024-01-30T03:57:47;11.43;;;5.35;;
76284;SDS011;71676;50.998;7.098;2024-01-30T04:00:24;11.57;;;6.18;;
76284;SDS011;71676;50.998;7.098;2024-01-30T04:06:29;11.05;;;5.20;;
76284;SDS011;71676;50.998;7.098;2024-01-30T04:09:52;10.55;;;4.72;;
76284;SDS011;71676;50.998;7.098;2024-01-30T04:12:38;10.68;;;5.22;;
76284;SDS011;71676;50.998;7.098;2024-01-30T04:15:27;10.90;;;5.13;;
76284;SDS011;71676;50.998;7.098;2024-01-30T04:18:26;9.30;;;4.88;;
76284;SDS011;71676;50.998;7.098;2024-01-30T04:24:19;10.73;;;5.43;;
76284;SDS011;71676;50.998;7.098;2024-01-30T04:27:21;9.82;;;5.22;;
76284;SDS011;71676;50.998;7.098;2024-01-30T04:30:07;10.90;;;5.10;;
76284;SDS011;71676;50.998;7.098;2024-01-30T04:32:47;10.20;;;4.80;;
76284;SDS011;71676;50.998;7.098;2024-01-30T04:35:47;10.15;;;4.82;;
76284;SDS011;71676;50.998;7.098;2024-01-30T04:41:38;12.23;;;4.72;;
76284;SDS011;71676;50.998;7.098;2024-01-30T04:44:17;10.32;;;5.10;;
76284;SDS011;71676;50.998;7.098;2024-01-30T04:47:22;11.75;;;5.38;;
76284;SDS011;71676;50.998;7.098;2024-01-30T04:50:33;9.13;;;4.63;;
76284;SDS011;71676;50.998;7.098;2024-01-30T04:53:24;9.63;;;5.15;;
76284;SDS011;71676;50.998;7.098;2024-01-30T04:59:41;11.95;;;5.95;;
76284;SDS011;71676;50.998;7.098;2024-01-30T05:03:20;10.52;;;4.18;;
76284;SDS011;71676;50.998;7.098;2024-01-30T05:05:45;9.70;;;4.78;;
76284;SDS011;71676;50.998;7.098;2024-01-30T05:12:10;10.40;;;5.00;;
76284;SDS011;71676;50.998;7.098;2024-01-30T05:15:00;8.52;;;4.72;;
76284;SDS011;71676;50.998;7.098;2024-01-30T05:17:54;10.75;;;4.65;;
76284;SDS011;71676;50.998;7.098;2024-01-30T06:03:58;11.00;;;5.53;;
76284;SDS011;71676;50.998;7.098;2024-01-30T06:23:44;10.25;;;5.07;;
76284;SDS011;71676;50.998;7.098;2024-01-30T06:26:55;10.30;;;4.82;;
76284;SDS011;71676;50.998;7.098;2024-01-30T06:29:50;11.60;;;5.28;;
76284;SDS011;71676;50.998;7.098;2024-01-30T06:32:42;10.75;;;5.10;;
76284;SDS011;71676;50.998;7.098;2024-01-30T06:35:44;11.68;;;5.25;;
76284;SDS011;71676;50.998;7.098;2024-01-30T06:57:42;11.32;;;5.20;;
76284;SDS011;71676;50.998;7.098;2024-01-30T07:00:31;11.38;;;4.63;;
76284;SDS011;71676;50.998;7.098;2024-01-30T07:23:03;12.18;;;4.75;;
76284;SDS011;71676;50.998;7.098;2024-01-30T07:28:52;12.95;;;6.20;;
76284;SDS011;71676;50.998;7.098;2024-01-30T07:31:38;11.73;;;6.13;;
76284;SDS011;71676;50.998;7.098;2024-01-30T07:34:20;11.90;;;4.82;;
76284;SDS011;71676;50.998;7.098;2024-01-30T07:36:46;11.05;;;5.25;;
76284;SDS011;71676;50.998;7.098;2024-01-30T07:39:14;11.25;;;4.82;;
76284;SDS011;71676;50.998;7.098;2024-01-30T07:41:41;11.55;;;5.43;;
76284;SDS011;71676;50.998;7.098;2024-01-30T07:44:07;9.98;;;4.95;;
76284;SDS011;71676;50.998;7.098;2024-01-30T07:46:34;10.52;;;5.38;;
76284;SDS011;71676;50.998;7.098;2024-01-30T07:49:01;9.80;;;4.75;;
76284;SDS011;71676;50.998;7.098;2024-01-30T07:51:28;9.90;;;5.97;;
76284;SDS011;71676;50.998;7.098;2024-01-30T07:53:57;10.15;;;4.97;;
76284;SDS011;71676;50.998;7.098;2024-01-30T07:56:25;10.75;;;4.63;;
76284;SDS011;71676;50.998;7.098;2024-01-30T07:58:51;10.18;;;5.10;;
76284;SDS011;71676;50.998;7.098;2024-01-30T08:01:18;14.48;;;6.18;;
76284;SDS011;71676;50.998;7.098;2024-01-30T08:03:45;10.85;;;5.35;;
76284;SDS011;71676;50.998;7.098;2024-01-30T08:06:11;10.52;;;5.18;;
76284;SDS011;71676;50.998;7.098;2024-01-30T08:08:38;12.05;;;5.57;;
76284;SDS011;71676;50.998;7.098;2024-01-30T08:11:04;11.15;;;5.45;;
76284;SDS011;71676;50.998;7.098;2024-01-30T08:13:34;11.45;;;5.47;;
76284;SDS011;71676;50.998;7.098;2024-01-30T08:16:00;11.30;;;5.15;;
76284;SDS011;71676;50.998;7.098;2024-01-30T08:18:27;91.63;;;24.42;;
76284;SDS011;71676;50.998;7.098;2024-01-30T08:20:53;59.15;;;17.63;;
76284;SDS011;71676;50.998;7.098;2024-01-30T08:23:20;22.48;;;8.38;;
76284;SDS011;71676;50.998;7.098;2024-01-30T08:25:47;36.83;;;11.50;;
76284;SDS011;71676;50.998;7.098;2024-01-30T08:28:13;20.98;;;8.75;;
76284;SDS011;71676;50.998;7.098;2024-01-30T08:30:41;19.83;;;7.25;;
76284;SDS011;71676;50.998;7.098;2024-01-30T08:33:08;12.70;;;5.15;;
76284;SDS011;71676;50.998;7.098;2024-01-30T08:35:35;14.38;;;5.97;;
76284;SDS011;71676;50.998;7.098;2024-01-30T08:38:01;13.00;;;5.55;;
76284;SDS011;71676;50.998;7.098;2024-01-30T08:40:29;10.82;;;5.03;;
76284;SDS011;71676;50.998;7.098;2024-01-30T08:42:55;9.60;;;4.82;;
76284;SDS011;71676;50.998;7.098;2024-01-30T08:45:22;11.43;;;5.55;;
76284;SDS011;71676;50.998;7.098;2024-01-30T08:47:50;11.40;;;5.72;;
76284;SDS011;71676;50.998;7.098;2024-01-30T08:50:17;11.90;;;6.13;;
76284;SDS011;71676;50.998;7.098;2024-01-30T08:52:43;12.75;;;6.30;;
76284;SDS011;71676;50.998;7.098;2024-01-30T08:55:10;11.73;;;5.07;;
76284;SDS011;71676;50.998;7.098;2024-01-30T08:57:37;12.75;;;6.15;;
76284;SDS011;71676;50.998;7.098;2024-01-30T09:00:04;11.55;;;5.25;;
76284;SDS011;71676;50.998;7.098;2024-01-30T09:02:33;12.05;;;4.90;;
76284;SDS011;71676;50.998;7.098;2024-01-30T09:05:02;13.10;;;5.32;;
76284;SDS011;71676;50.998;7.098;2024-01-30T09:07:28;10.85;;;4.75;;
76284;SDS011;71676;50.998;7.098;2024-01-30T09:09:55;9.50;;;4.78;;
76284;SDS011;71676;50.998;7.098;2024-01-30T09:12:22;11.15;;;4.78;;
76284;SDS011;71676;50.998;7.098;2024-01-30T09:14:49;10.05;;;5.05;;
76284;SDS011;71676;50.998;7.098;2024-01-30T09:17:16;9.70;;;4.53;;
76284;SDS011;71676;50.998;7.098;2024-01-30T09:19:42;10.85;;;5.63;;
76284;SDS011;71676;50.998;7.098;2024-01-30T09:22:10;11.32;;;5.00;;
76284;SDS011;71676;50.998;7.098;2024-01-30T09:24:37;9.88;;;4.53;;
76284;SDS011;71676;50.998;7.098;2024-01-30T09:27:04;10.52;;;4.85;;
76284;SDS011;71676;50.998;7.098;2024-01-30T09:29:31;8.98;;;4.45;;
76284;SDS011;71676;50.998;7.098;2024-01-30T09:31:59;9.40;;;4.65;;
76284;SDS011;71676;50.998;7.098;2024-01-30T09:34:26;10.50;;;4.72;;
76284;SDS011;71676;50.998;7.098;2024-01-30T09:36:52;9.95;;;4.50;;
76284;SDS011;71676;50.998;7.098;2024-01-30T09:39:20;9.43;;;4.93;;
76284;SDS011;71676;50.998;7.098;2024-01-30T09:41:48;10.15;;;5.40;;
76284;SDS011;71676;50.998;7.098;2024-01-30T09:44:16;9.40;;;5.00;;
76284;SDS011;71676;50.998;7.098;2024-01-30T09:46:43;9.90;;;4.70;;
76284;SDS011;71676;50.998;7.098;2024-01-30T09:49:13;11.98;;;4.55;;
76284;SDS011;71676;50.998;7.098;2024-01-30T09:51:40;9.88;;;4.93;;
76284;SDS011;71676;50.998;7.098;2024-01-30T09:54:07;11.38;;;5.13;;
76284;SDS011;71676;50.998;7.098;2024-01-30T09:56:37;10.27;;;4.40;;
76284;SDS011;71676;50.998;7.098;2024-01-30T09:59:03;8.85;;;4.80;;
76284;SDS011;71676;50.998;7.098;2024-01-30T10:01:30;10.63;;;5.15;;
76284;SDS011;71676;50.998;7.098;2024-01-30T10:03:57;10.73;;;4.75;;
76284;SDS011;71676;50.998;7.098;2024-01-30T10:06:24;11.35;;;5.13;;
76284;SDS011;71676;50.998;7.098;2024-01-30T10:08:51;8.57;;;4.22;;
76284;SDS011;71676;50.998;7.098;2024-01-30T10:11:17;11.93;;;5.30;;
76284;SDS011;71676;50.998;7.098;2024-01-30T10:13:45;9.82;;;4.85;;
76284;SDS011;71676;50.998;7.098;2024-01-30T10:16:13;10.43;;;4.95;;
76284;SDS011;71676;50.998;7.098;2024-01-30T10:18:41;9.65;;;4.50;;
76284;SDS011;71676;50.998;7.098;2024-01-30T10:21:07;10.65;;;4.47;;
76284;SDS011;71676;50.998;7.098;2024-01-30T10:23:34;9.93;;;4.32;;
76284;SDS011;71676;50.998;7.098;2024-01-30T10:26:02;9.05;;;4.70;;
76284;SDS011;71676;50.998;7.098;2024-01-30T10:28:29;10.45;;;4.53;;
76284;SDS011;71676;50.998;7.098;2024-01-30T10:31:01;9.70;;;4.22;;
76284;SDS011;71676;50.998;7.098;2024-01-30T10:33:28;10.85;;;4.68;;
76284;SDS011;71676;50.998;7.098;2024-01-30T10:35:55;7.97;;;4.22;;
76284;SDS011;71676;50.998;7.098;2024-01-30T10:38:28;10.23;;;4.60;;
76284;SDS011;71676;50.998;7.098;2024-01-30T10:40:56;10.43;;;4.50;;
76284;SDS011;71676;50.998;7.098;2024-01-30T10:43:24;9.85;;;4.43;;
76284;SDS011;71676;50.998;7.098;2024-01-30T10:45:56;8.82;;;4.07;;
76284;SDS011;71676;50.998;7.098;2024-01-30T10:48:27;9.95;;;4.55;;
76284;SDS011;71676;50.998;7.098;2024-01-30T10:50:56;9.60;;;4.82;;
76284;SDS011;71676;50.998;7.098;2024-01-30T10:53:26;9.95;;;4.63;;
76284;SDS011;71676;50.998;7.098;2024-01-30T10:55:53;11.00;;;4.50;;
76284;SDS011;71676;50.998;7.098;2024-01-30T10:58:21;10.90;;;4.38;;
76284;SDS011;71676;50.998;7.098;2024-01-30T11:00:48;9.32;;;4.65;;
76284;SDS011;71676;50.998;7.098;2024-01-30T11:03:17;10.23;;;5.07;;
76284;SDS011;71676;50.998;7.098;2024-01-30T11:05:49;12.13;;;4.93;;
76284;SDS011;71676;50.998;7.098;2024-01-30T11:08:22;8.90;;;3.97;;
76284;SDS011;71676;50.998;7.098;2024-01-30T11:10:54;10.65;;;4.32;;
76284;SDS011;71676;50.998;7.098;2024-01-30T11:13:21;7.85;;;4.13;;
76284;SDS011;71676;50.998;7.098;2024-01-30T11:15:48;12.60;;;4.72;;
76284;SDS011;71676;50.998;7.098;2024-01-30T11:18:22;8.95;;;4.00;;
76284;SDS011;71676;50.998;7.098;2024-01-30T11:20:50;10.93;;;4.65;;
76284;SDS011;71676;50.998;7.098;2024-01-30T11:23:17;7.97;;;3.95;;
76284;SDS011;71676;50.998;7.098;2024-01-30T11:25:44;9.60;;;4.40;;
76284;SDS011;71676;50.998;7.098;2024-01-30T11:28:14;11.32;;;4.88;;
76284;SDS011;71676;50.998;7.098;2024-01-30T11:30:41;9.93;;;4.43;;
76284;SDS011;71676;50.998;7.098;2024-01-30T11:33:10;10.82;;;4.90;;
76284;SDS011;71676;50.998;7.098;2024-01-30T11:35:38;8.15;;;3.67;;
76284;SDS011;71676;50.998;7.098;2024-01-30T11:38:08;10.20;;;3.92;;
76284;SDS011;71676;50.998;7.098;2024-01-30T11:40:36;10.23;;;4.68;;
76284;SDS011;71676;50.998;7.098;2024-01-30T11:43:05;10.25;;;4.32;;
76284;SDS011;71676;50.998;7.098;2024-01-30T11:45:33;9.57;;;4.70;;
76284;SDS011;71676;50.998;7.098;2024-01-30T11:48:00;8.95;;;4.38;;
76284;SDS011;71676;50.998;7.098;2024-01-30T11:50:28;8.98;;;4.53;;
76284;SDS011;71676;50.998;7.098;2024-01-30T11:52:55;10.35;;;4.45;;
76284;SDS011;71676;50.998;7.098;2024-01-30T11:55:24;8.65;;;4.18;;
76284;SDS011;71676;50.998;7.098;2024-01-30T11:57:51;12.40;;;4.82;;
76284;SDS011;71676;50.998;7.098;2024-01-30T12:00:18;8.75;;;4.32;;
76284;SDS011;71676;50.998;7.098;2024-01-30T12:02:48;9.35;;;4.18;;
76284;SDS011;71676;50.998;7.098;2024-01-30T12:05:16;10.45;;;4.05;;
76284;SDS011;71676;50.998;7.098;2024-01-30T12:07:45;9.43;;;4.47;;
76284;SDS011;71676;50.998;7.098;2024-01-30T12:10:12;10.35;;;4.65;;
76284;SDS011;71676;50.998;7.098;2024-01-30T12:12:42;8.45;;;4.22;;
76284;SDS011;71676;50.998;7.098;2024-01-30T12:15:10;9.80;;;4.30;;
76284;SDS011;71676;50.998;7.098;2024-01-30T12:17:37;9.13;;;4.30;;
76284;SDS011;71676;50.998;7.098;2024-01-30T12:20:04;10.00;;;4.22;;
76284;SDS011;71676;50.998;7.098;2024-01-30T12:22:33;11.10;;;4.57;;
76284;SDS011;71676;50.998;7.098;2024-01-30T12:25:04;9.45;;;4.72;;
76284;SDS011;71676;50.998;7.098;2024-01-30T12:27:30;8.85;;;4.82;;
76284;SDS011;71676;50.998;7.098;2024-01-30T12:29:58;10.48;;;4.88;;
76284;SDS011;71676;50.998;7.098;2024-01-30T12:32:25;11.50;;;4.72;;
76284;SDS011;71676;50.998;7.098;2024-01-30T12:34:54;9.70;;;4.43;;
76284;SDS011;71676;50.998;7.098;2024-01-30T12:37:22;11.25;;;4.35;;
76284;SDS011;71676;50.998;7.098;2024-01-30T12:39:50;11.77;;;4.32;;
76284;SDS011;71676;50.998;7.098;2024-01-30T12:42:19;9.68;;;3.95;;
76284;SDS011;71676;50.998;7.098;2024-01-30T12:44:46;9.85;;;4.80;;
76284;SDS011;71676;50.998;7.098;2024-01-30T12:47:15;8.38;;;4.40;;
76284;SDS011;71676;50.998;7.098;2024-01-30T12:49:42;9.63;;;4.22;;
76284;SDS011;71676;50.998;7.098;2024-01-30T12:52:10;9.57;;;4.00;;
76284;SDS011;71676;50.998;7.098;2024-01-30T12:54:37;11.63;;;4.40;;
76284;SDS011;71676;50.998;7.098;2024-01-30T12:57:04;8.90;;;3.85;;
76284;SDS011;71676;50.998;7.098;2024-01-30T12:59:31;10.07;;;3.72;;
76284;SDS011;71676;50.998;7.098;2024-01-30T13:01:59;8.90;;;4.32;;
76284;SDS011;71676;50.998;7.098;2024-01-30T13:04:28;9.35;;;4.22;;
76284;SDS011;71676;50.998;7.098;2024-01-30T13:06:55;12.00;;;4.97;;
76284;SDS011;71676;50.998;7.098;2024-01-30T13:09:22;12.07;;;4.63;;
76284;SDS011;71676;50.998;7.098;2024-01-30T13:11:49;10.13;;;4.45;;
76284;SDS011;71676;50.998;7.098;2024-01-30T13:14:16;9.23;;;4.10;;
76284;SDS011;71676;50.998;7.098;2024-01-30T13:16:43;8.25;;;4.50;;
76284;SDS011;71676;50.998;7.098;2024-01-30T13:19:10;8.85;;;4.05;;
76284;SDS011;71676;50.998;7.098;2024-01-30T13:21:38;7.80;;;3.95;;
76284;SDS011;71676;50.998;7.098;2024-01-30T13:24:05;9.70;;;4.22;;
76284;SDS011;71676;50.998;7.098;2024-01-30T13:26:32;10.23;;;4.57;;
76284;SDS011;71676;50.998;7.098;2024-01-30T13:28:59;8.15;;;3.97;;
76284;SDS011;71676;50.998;7.098;2024-01-30T13:31:25;9.88;;;4.60;;
76284;SDS011;71676;50.998;7.098;2024-01-30T13:33:53;10.45;;;4.07;;
76284;SDS011;71676;50.998;7.098;2024-01-30T13:36:19;9.63;;;4.70;;
76284;SDS011;71676;50.998;7.098;2024-01-30T13:38:48;9.73;;;4.32;;
76284;SDS011;71676;50.998;7.098;2024-01-30T13:41:15;9.38;;;4.63;;
76284;SDS011;71676;50.998;7.098;2024-01-30T13:43:42;9.63;;;4.18;;
76284;SDS011;71676;50.998;7.098;2024-01-30T13:46:09;10.23;;;4.35;;
76284;SDS011;71676;50.998;7.098;2024-01-30T13:48:36;10.75;;;4.72;;
76284;SDS011;71676;50.998;7.098;2024-01-30T13:51:03;10.98;;;4.55;;
76284;SDS011;71676;50.998;7.098;2024-01-30T13:53:30;11.73;;;4.30;;
76284;SDS011;71676;50.998;7.098;2024-01-30T13:55:59;13.50;;;5.28;;
76284;SDS011;71676;50.998;7.098;2024-01-30T13:58:25;11.38;;;4.90;;
76284;SDS011;71676;50.998;7.098;2024-01-30T14:00:52;10.82;;;4.70;;
76284;SDS011;71676;50.998;7.098;2024-01-30T14:03:19;10.52;;;4.40;;
76284;SDS011;71676;50.998;7.098;2024-01-30T14:05:45;10.70;;;4.60;;
76284;SDS011;71676;50.998;7.098;2024-01-30T14:08:12;9.10;;;4.07;;
76284;SDS011;71676;50.998;7.098;2024-01-30T14:10:39;11.77;;;4.65;;
76284;SDS011;71676;50.998;7.098;2024-01-30T14:13:07;9.75;;;4.70;;
76284;SDS011;71676;50.998;7.098;2024-01-30T14:15:33;14.30;;;5.10;;
76284;SDS011;71676;50.998;7.098;2024-01-30T14:18:00;9.57;;;4.47;;
76284;SDS011;71676;50.998;7.098;2024-01-30T14:20:27;10.13;;;4.53;;
76284;SDS011;71676;50.998;7.098;2024-01-30T14:22:53;11.38;;;4.30;;
76284;SDS011;71676;50.998;7.098;2024-01-30T14:25:20;10.07;;;4.72;;
76284;SDS011;71676;50.998;7.098;2024-01-30T14:27:49;9.68;;;4.45;;
76284;SDS011;71676;50.998;7.098;2024-01-30T14:30:17;10.63;;;3.90;;
76284;SDS011;71676;50.998;7.098;2024-01-30T14:32:43;11.10;;;4.70;;
76284;SDS011;71676;50.998;7.098;2024-01-30T14:35:14;13.25;;;4.60;;
76284;SDS011;71676;50.998;7.098;2024-01-30T14:37:41;9.50;;;4.50;;
76284;SDS011;71676;50.998;7.098;2024-01-30T14:40:08;10.63;;;4.57;;
76284;SDS011;71676;50.998;7.098;2024-01-30T14:42:35;9.38;;;4.43;;
76284;SDS011;71676;50.998;7.098;2024-01-30T14:45:02;10.18;;;4.75;;
76284;SDS011;71676;50.998;7.098;2024-01-30T14:47:31;9.07;;;4.30;;
76284;SDS011;71676;50.998;7.098;2024-01-30T14:49:58;12.50;;;4.93;;
76284;SDS011;71676;50.998;7.098;2024-01-30T14:52:24;11.00;;;5.45;;
76284;SDS011;71676;50.998;7.098;2024-01-30T14:54:51;11.82;;;4.32;;
76284;SDS011;71676;50.998;7.098;2024-01-30T14:57:18;8.80;;;4.43;;
76284;SDS011;71676;50.998;7.098;2024-01-30T14:59:45;9.93;;;4.15;;
76284;SDS011;71676;50.998;7.098;2024-01-30T15:02:13;9.70;;;3.97;;
76284;SDS011;71676;50.998;7.098;2024-01-30T15:04:43;8.40;;;3.65;;
76284;SDS011;71676;50.998;7.098;2024-01-30T15:07:10;10.15;;;4.05;;
76284;SDS011;71676;50.998;7.098;2024-01-30T15:09:37;11.75;;;4.13;;
76284;SDS011;71676;50.998;7.098;2024-01-30T15:12:04;7.55;;;3.40;;
76284;SDS011;71676;50.998;7.098;2024-01-30T15:14:30;8.50;;;3.70;;
76284;SDS011;71676;50.998;7.098;2024-01-30T15:16:57;10.23;;;4.63;;
76284;SDS011;71676;50.998;7.098;2024-01-30T15:19:24;9.93;;;4.15;;
76284;SDS011;71676;50.998;7.098;2024-01-30T15:21:52;10.35;;;3.90;;
76284;SDS011;71676;50.998;7.098;2024-01-30T15:24:18;9.65;;;3.78;;
76284;SDS011;71676;50.998;7.098;2024-01-30T15:26:49;8.68;;;3.22;;
76284;SDS011;71676;50.998;7.098;2024-01-30T15:29:16;9.57;;;4.45;;
76284;SDS011;71676;50.998;7.098;2024-01-30T15:31:43;10.25;;;4.55;;
76284;SDS011;71676;50.998;7.098;2024-01-30T15:34:09;8.82;;;3.83;;
76284;SDS011;71676;50.998;7.098;2024-01-30T15:36:36;10.23;;;4.45;;
76284;SDS011;71676;50.998;7.098;2024-01-30T15:39:04;10.68;;;4.43;;
76284;SDS011;71676;50.998;7.098;2024-01-30T15:41:31;9.73;;;4.43;;
76284;SDS011;71676;50.998;7.098;2024-01-30T15:43:57;10.77;;;4.97;;
76284;SDS011;71676;50.998;7.098;2024-01-30T15:46:27;10.80;;;3.92;;
76284;SDS011;71676;50.998;7.098;2024-01-30T15:48:53;8.63;;;4.30;;
76284;SDS011;71676;50.998;7.098;2024-01-30T15:51:20;12.18;;;4.40;;
76284;SDS011;71676;50.998;7.098;2024-01-30T15:53:47;9.27;;;4.18;;
76284;SDS011;71676;50.998;7.098;2024-01-30T15:56:17;10.32;;;4.85;;
76284;SDS011;71676;50.998;7.098;2024-01-30T15:58:44;10.90;;;4.53;;
76284;SDS011;71676;50.998;7.098;2024-01-30T16:01:14;9.98;;;4.22;;
76284;SDS011;71676;50.998;7.098;2024-01-30T16:03:41;10.43;;;4.70;;
76284;SDS011;71676;50.998;7.098;2024-01-30T16:06:09;10.25;;;4.30;;
76284;SDS011;71676;50.998;7.098;2024-01-30T16:08:36;12.98;;;5.00;;
76284;SDS011;71676;50.998;7.098;2024-01-30T16:11:03;9.55;;;4.20;;
76284;SDS011;71676;50.998;7.098;2024-01-30T16:13:31;15.43;;;7.00;;
76284;SDS011;71676;50.998;7.098;2024-01-30T16:15:57;16.25;;;7.00;;
76284;SDS011;71676;50.998;7.098;2024-01-30T16:18:24;10.65;;;5.25;;
76284;SDS011;71676;50.998;7.098;2024-01-30T16:20:51;13.70;;;6.65;;
76284;SDS011;71676;50.998;7.098;2024-01-30T16:23:18;13.50;;;5.63;;
76284;SDS011;71676;50.998;7.098;2024-01-30T16:25:45;9.95;;;5.50;;
76284;SDS011;71676;50.998;7.098;2024-01-30T16:28:11;14.40;;;5.78;;
76284;SDS011;71676;50.998;7.098;2024-01-30T16:30:39;11.23;;;5.00;;
76284;SDS011;71676;50.998;7.098;2024-01-30T16:33:06;8.52;;;3.78;;
76284;SDS011;71676;50.998;7.098;2024-01-30T16:35:33;11.90;;;4.32;;
76284;SDS011;71676;50.998;7.098;2024-01-30T16:37:59;8.25;;;3.55;;
76284;SDS011;71676;50.998;7.098;2024-01-30T16:40:26;8.27;;;3.10;;
76284;SDS011;71676;50.998;7.098;2024-01-30T16:42:53;8.18;;;3.40;;
76284;SDS011;71676;50.998;7.098;2024-01-30T16:45:19;10.02;;;3.20;;
76284;SDS011;71676;50.998;7.098;2024-01-30T16:47:47;6.57;;;2.85;;
76284;SDS011;71676;50.998;7.098;2024-01-30T16:50:15;7.93;;;2.83;;